Humidity-temperature Sensor

Selected Measurement Type: Air Temperature

 
Air Temperature [°C]     6 entries per hour
Showing data from 1/25/2023 (00:00:00 Z) to 1/22/2023 (00:01:00 Z)
Previous Next [ Day | 3-Days | 7-Days ]
First Last
Prev [ Day | 3-Days | 7-Days ] Next
First Last

Start Time:     :
End Time:     :     
Time (in GMT) :00 :50 :40 :30 :20 :10
Previous Next [ Day | 3-Days | 7-Days ]
First Last
Prev [ Day | 3-Days | 7-Days ] Next
First Last


123 => good data
MM => data is determined as missing
-- => data not received/configured
Back to Top Back to Top
1/25/2023 00:00 to 23:10 26.82 26.76 26.68 26.64 26.79 26.66
1/24/2023 23:00 to 22:10 26.64 26.95 26.96 26.85 26.87 26.77
1/24/2023 22:00 to 21:10 26.65 26.93 26.82 26.69 26.73 26.63
1/24/2023 21:00 to 20:10 26.73 26.75 26.53 26.63 26.51 26.69
1/24/2023 20:00 to 19:10 26.51 26.64 26.48 26.60 26.65 26.52
1/24/2023 19:00 to 18:10 26.55 26.59 26.48 26.57 26.49 26.44
1/24/2023 18:00 to 17:10 26.44 26.53 26.40 26.56 26.50 26.55
1/24/2023 17:00 to 16:10 26.37 26.63 26.44 26.53 26.39 26.40
1/24/2023 16:00 to 15:10 26.33 26.51 26.40 26.46 26.53 26.37
1/24/2023 15:00 to 14:10 26.43 26.45 26.49 26.42 26.25 26.36
1/24/2023 14:00 to 13:10 26.35 26.47 26.45 26.44 26.34 26.16
1/24/2023 13:00 to 12:10 26.36 26.29 26.16 26.15 26.24 26.18
1/24/2023 12:00 to 11:10 25.95 26.38 26.02 26.06 26.14 26.32
1/24/2023 11:00 to 10:10 26.24 26.15 26.12 26.10 26.03 26.30
1/24/2023 10:00 to 9:10 26.14 26.20 26.01 26.06 26.22 26.24
1/24/2023 09:00 to 8:10 26.24 26.14 26.25 26.30 26.23 26.36
1/24/2023 08:00 to 7:10 26.13 26.34 26.30 26.37 26.29 26.39
1/24/2023 07:00 to 6:10 26.37 26.45 26.44 26.44 26.33 26.33
1/24/2023 06:00 to 5:10 26.45 26.47 26.58 26.48 26.66 26.55
1/24/2023 05:00 to 4:10 26.45 26.68 26.57 26.60 26.56 26.59
1/24/2023 04:00 to 3:10 26.57 26.68 26.60 26.64 26.67 26.73
1/24/2023 03:00 to 2:10 26.64 26.61 26.70 26.65 26.69 26.61
1/24/2023 02:00 to 1:10 26.53 26.64 26.74 26.63 26.78 26.75
1/24/2023 01:00 to 0:10 26.67 26.66 26.70 26.69 26.65 26.64
1/24/2023 00:00 to 23:10 26.75 26.56 26.81 26.90 26.92 26.74
1/23/2023 23:00 to 22:10 26.77 26.65 26.63 26.45 26.43 26.26
1/23/2023 22:00 to 21:10 26.45 26.23 26.26 26.12 26.07 26.21
1/23/2023 21:00 to 20:10 26.05 26.23 26.31 26.39 26.51 26.57
1/23/2023 20:00 to 19:10 26.68 26.49 26.40 26.24 26.26 26.16
1/23/2023 19:00 to 18:10 26.25 26.12 26.12 26.09 26.14 25.54
1/23/2023 18:00 to 17:10 25.32 25.10 25.19 25.26 25.20 25.12
1/23/2023 17:00 to 16:10 24.95 24.58 25.39 25.93 26.03 25.99
1/23/2023 16:00 to 15:10 25.83 26.08 26.13 26.22 26.17 26.09
1/23/2023 15:00 to 14:10 26.12 26.12 26.16 26.25 26.20 26.20
1/23/2023 14:00 to 13:10 26.13 26.02 26.03 25.99 25.99 26.05
1/23/2023 13:00 to 12:10 25.96 25.96 26.02 26.04 26.00 25.98
1/23/2023 12:00 to 11:10 25.95 26.04 26.04 25.93 25.86 26.11
1/23/2023 11:00 to 10:10 25.84 25.91 25.77 25.62 25.62 25.66
1/23/2023 10:00 to 9:10 25.82 25.54 25.55 25.35 25.31 25.25
1/23/2023 09:00 to 8:10 25.06 24.96 25.00 25.46 25.72 25.71
1/23/2023 08:00 to 7:10 25.59 25.59 25.54 25.41 25.59 25.57
1/23/2023 07:00 to 6:10 25.77 25.75 25.69 25.60 25.75 25.63
1/23/2023 06:00 to 5:10 25.69 25.61 25.63 25.62 25.58 25.57
1/23/2023 05:00 to 4:10 25.58 25.57 25.66 25.61 25.52 25.55
1/23/2023 04:00 to 3:10 25.50 25.50 25.50 25.46 25.47 25.43
1/23/2023 03:00 to 2:10 25.39 25.46 25.32 25.47 25.35 25.47
1/23/2023 02:00 to 1:10 25.43 25.34 25.57 25.45 25.51 25.46
1/23/2023 01:00 to 0:10 25.35 25.36 25.29 25.43 25.38 25.42
1/23/2023 00:00 to 23:10 25.33 25.28 25.33 25.12 25.16 25.27
1/22/2023 23:00 to 22:10 25.27 25.30 25.23 24.97 24.96 25.00
1/22/2023 22:00 to 21:10 25.01 24.95 24.94 24.87 24.70 24.54
1/22/2023 21:00 to 20:10 24.49 24.29 24.53 24.71 24.11 23.90
1/22/2023 20:00 to 19:10 23.74 23.51 24.78 24.73 24.84 25.57
1/22/2023 19:00 to 18:10 25.57 25.59 25.51 25.48 25.58 25.64
1/22/2023 18:00 to 17:10 25.28 25.46 25.37 25.24 25.48 25.36
1/22/2023 17:00 to 16:10 25.22 25.28 25.12 25.09 25.05 25.02
1/22/2023 16:00 to 15:10 25.04 25.00 24.84 24.84 24.65 24.66
1/22/2023 15:00 to 14:10 24.34 24.28 24.11 24.09 24.07 23.97
1/22/2023 14:00 to 13:10 23.91 23.68 23.73 23.62 23.46 23.53
1/22/2023 13:00 to 12:10 23.49 23.37 23.56 23.64 23.68 23.60
1/22/2023 12:00 to 11:10 23.67 23.95 24.05 24.14 24.04 24.09
1/22/2023 11:00 to 10:10 24.08 23.96 23.88 23.80 23.71 23.63
1/22/2023 10:00 to 9:10 23.57 23.55 23.78 23.73 23.83 23.81
1/22/2023 09:00 to 8:10 23.87 23.75 23.73 23.82 23.75 23.87
1/22/2023 08:00 to 7:10 24.00 24.05 24.36 24.62 25.57 25.28
1/22/2023 07:00 to 6:10 25.27 25.26 25.28 25.24 25.29 25.28
1/22/2023 06:00 to 5:10 25.36 25.23 25.07 25.03 25.06 25.16
1/22/2023 05:00 to 4:10 25.13 25.06 25.08 25.08 25.09 25.06
1/22/2023 04:00 to 3:10 24.94 24.97 24.88 24.82 24.87 24.86
1/22/2023 03:00 to 2:10 24.79 24.78 24.72 24.71 24.67 24.71
1/22/2023 02:00 to 1:10 24.60 24.55 24.54 24.53 24.51 24.38
1/22/2023 01:00 to 0:10 24.40 24.36 24.40 24.28 24.35 24.27